Terminal Aerodrome Forecast
Issued by NWS Dodge City, KS

Home | Current Version | Previous Version | Graphics & Text | Print | Product List | Glossary Off
Versions: 1 2 3 4 5 6 7 8 9 10 11 12 13 14 15 16 17 18 19 20 21 22 23 24 25 26 27 28 29 30 31 32 33 34 35 36

000
FTUS43 KDDC 200804 AAF
TAFDDC
TAF AMD
KDDC 200804Z 2008/2106 03016KT 3SM BR OVC006
     FM200900 01016G26KT 5SM BR OVC010
     FM201200 36017G27KT P6SM OVC015
     FM201500 36016G26KT P6SM BKN030
     FM201800 01012KT P6SM SKC=

USA.gov is the U.S. government's official web portal to all federal, state and local government web resources and services.